createdAt,value
2022-12-28T00:01:25.965Z,5.22
2022-12-28T00:03:53.556Z,9.07
2022-12-28T00:06:21.593Z,5.30
2022-12-28T00:08:49.007Z,6.82
2022-12-28T00:11:26.655Z,7.60
2022-12-28T00:13:58.979Z,3.95
2022-12-28T00:16:27.997Z,4.07
2022-12-28T00:18:56.012Z,8.75
2022-12-28T00:21:23.480Z,5.78
2022-12-28T00:23:54.417Z,6.75
2022-12-28T00:26:25.767Z,7.57
2022-12-28T00:28:56.826Z,8.43
2022-12-28T00:31:29.094Z,4.80
2022-12-28T00:33:56.169Z,4.93
2022-12-28T00:36:23.307Z,6.18
2022-12-28T00:38:50.608Z,5.47
2022-12-28T00:41:17.916Z,5.32
2022-12-28T00:43:46.109Z,9.10
2022-12-28T00:46:13.538Z,11.85
2022-12-28T00:48:40.718Z,5.45
2022-12-28T00:51:07.884Z,6.30
2022-12-28T00:53:35.115Z,6.60
2022-12-28T00:56:13.040Z,9.77
2022-12-28T00:58:40.588Z,10.38
2022-12-28T01:01:12.024Z,9.68
2022-12-28T01:03:39.165Z,6.10
2022-12-28T01:06:11.120Z,9.05
2022-12-28T01:08:38.828Z,5.35
2022-12-28T01:11:12.147Z,9.20
2022-12-28T01:13:39.428Z,6.78
2022-12-28T01:16:13.724Z,7.82
2022-12-28T01:18:41.104Z,6.88
2022-12-28T01:21:13.201Z,6.32
2022-12-28T01:23:40.402Z,6.22
2022-12-28T01:26:08.072Z,5.85
2022-12-28T01:28:35.341Z,9.15
2022-12-28T01:31:06.967Z,6.45
2022-12-28T01:33:34.098Z,9.45
2022-12-28T01:36:06.163Z,5.82
2022-12-28T01:41:01.021Z,5.15
2022-12-28T01:43:40.159Z,8.65
2022-12-28T01:46:08.999Z,6.95
2022-12-28T01:48:37.454Z,5.88
2022-12-28T01:51:04.883Z,7.13
2022-12-28T01:53:32.160Z,9.15
2022-12-28T01:55:59.310Z,8.75
2022-12-28T01:58:29.200Z,7.05
2022-12-28T02:00:56.430Z,6.22
2022-12-28T02:03:26.658Z,10.82
2022-12-28T02:05:55.115Z,8.80
2022-12-28T02:08:41.481Z,5.10
2022-12-28T02:11:12.039Z,6.93
2022-12-28T02:13:39.892Z,6.57
2022-12-28T02:16:08.485Z,9.05
2022-12-28T02:18:35.662Z,11.13
2022-12-28T02:21:11.086Z,6.10
2022-12-28T02:23:38.365Z,6.63
2022-12-28T02:26:24.026Z,9.00
2022-12-28T02:29:17.193Z,6.22
2022-12-28T02:32:03.077Z,4.45
2022-12-28T02:34:34.684Z,8.77
2022-12-28T02:37:10.362Z,5.90
2022-12-28T02:39:40.665Z,6.57
2022-12-28T02:42:09.842Z,10.75
2022-12-28T02:44:56.079Z,6.97
2022-12-28T02:47:42.343Z,5.88
2022-12-28T02:50:11.167Z,6.80
2022-12-28T02:53:06.573Z,7.00
2022-12-28T02:56:07.920Z,12.07
2022-12-28T02:58:48.885Z,6.43
2022-12-28T03:01:19.112Z,9.93
2022-12-28T03:03:46.265Z,6.32
2022-12-28T03:06:37.739Z,9.80
2022-12-28T03:09:04.818Z,7.47
2022-12-28T03:11:44.887Z,8.10
2022-12-28T03:14:15.422Z,10.48
2022-12-28T03:17:03.286Z,5.57
2022-12-28T03:19:53.451Z,8.32
2022-12-28T03:22:41.220Z,8.05
2022-12-28T03:25:30.401Z,8.40
2022-12-28T03:28:17.521Z,6.70
2022-12-28T03:31:05.167Z,7.72
2022-12-28T03:33:32.689Z,10.60
2022-12-28T03:36:18.651Z,8.30
2022-12-28T03:38:54.082Z,7.00
2022-12-28T03:41:27.927Z,8.32
2022-12-28T03:43:56.854Z,6.82
2022-12-28T03:46:44.787Z,8.43
2022-12-28T03:49:12.445Z,8.20
2022-12-28T03:51:40.469Z,8.50
2022-12-28T03:54:07.617Z,6.15
2022-12-28T03:56:34.737Z,5.43
2022-12-28T03:59:01.818Z,5.07
2022-12-28T04:01:29.044Z,8.00
2022-12-28T04:03:56.304Z,6.65
2022-12-28T04:06:23.451Z,6.30
2022-12-28T04:08:50.620Z,5.68
2022-12-28T04:11:17.833Z,6.28
2022-12-28T04:13:44.928Z,5.22
2022-12-28T04:16:13.131Z,6.93
2022-12-28T04:18:41.792Z,6.30
2022-12-28T04:21:09.614Z,5.75
2022-12-28T04:23:36.956Z,4.13
2022-12-28T04:26:04.250Z,5.15
2022-12-28T04:28:31.953Z,5.38
2022-12-28T04:31:00.031Z,7.47
2022-12-28T04:33:27.578Z,4.63
2022-12-28T04:35:54.693Z,4.05
2022-12-28T04:38:22.123Z,5.28
2022-12-28T04:40:49.284Z,3.95
2022-12-28T04:43:17.554Z,4.38
2022-12-28T04:45:44.623Z,4.80
2022-12-28T04:48:11.697Z,3.53
2022-12-28T04:50:38.817Z,5.13
2022-12-28T04:53:05.901Z,5.00
2022-12-28T04:55:34.902Z,5.47
2022-12-28T04:58:02.026Z,6.00
2022-12-28T05:00:29.205Z,5.57
2022-12-28T05:02:58.838Z,4.60
2022-12-28T05:05:26.210Z,4.72
2022-12-28T05:07:53.355Z,6.28
2022-12-28T05:10:20.477Z,6.68
2022-12-28T05:12:47.603Z,5.95
2022-12-28T05:15:14.712Z,4.07
2022-12-28T05:17:41.841Z,6.93
2022-12-28T05:20:09.159Z,6.05
2022-12-28T05:22:40.726Z,6.00
2022-12-28T05:27:35.196Z,6.03
2022-12-28T05:30:02.303Z,4.88
2022-12-28T05:32:29.367Z,5.32
2022-12-28T05:34:56.451Z,5.28
2022-12-28T05:37:23.562Z,7.75
2022-12-28T05:39:50.747Z,5.63
2022-12-28T05:42:17.830Z,6.25
2022-12-28T05:44:44.885Z,6.22
2022-12-28T05:47:13.726Z,7.63
2022-12-28T05:49:40.850Z,7.78
2022-12-28T05:52:08.006Z,9.20
2022-12-28T05:54:35.226Z,6.63
2022-12-28T05:57:02.360Z,8.45
2022-12-28T05:59:29.433Z,6.60
2022-12-28T06:01:56.656Z,6.53
2022-12-28T06:04:24.671Z,8.90
2022-12-28T06:06:51.878Z,7.45
2022-12-28T06:09:18.949Z,7.65
2022-12-28T06:11:46.211Z,8.60
2022-12-28T06:14:13.529Z,9.65
2022-12-28T06:16:41.879Z,8.93
2022-12-28T06:19:10.378Z,7.57
2022-12-28T06:21:38.527Z,8.43
2022-12-28T06:24:06.343Z,8.05
2022-12-28T06:26:34.450Z,10.45
2022-12-28T06:29:02.178Z,10.35
2022-12-28T06:31:39.753Z,9.00
2022-12-28T06:34:07.765Z,9.15
2022-12-28T06:36:34.897Z,7.40
2022-12-28T06:39:02.797Z,10.82
2022-12-28T06:41:30.328Z,8.88
2022-12-28T06:43:57.796Z,9.13
2022-12-28T06:46:25.772Z,9.70
2022-12-28T06:48:53.427Z,9.30
2022-12-28T06:51:21.963Z,8.55
2022-12-28T06:53:50.007Z,9.32
2022-12-28T06:56:24.194Z,9.88
2022-12-28T06:58:55.601Z,8.82
2022-12-28T07:01:27.507Z,9.20
2022-12-28T07:03:55.322Z,9.75
2022-12-28T07:06:24.238Z,10.48
2022-12-28T07:08:51.828Z,9.50
2022-12-28T07:11:20.363Z,9.95
2022-12-28T07:13:47.821Z,15.68
2022-12-28T07:16:16.517Z,13.48
2022-12-28T07:18:43.965Z,9.75
2022-12-28T07:21:17.127Z,11.18
2022-12-28T07:23:44.350Z,10.13
2022-12-28T07:26:12.887Z,12.05
2022-12-28T07:28:50.913Z,10.55
2022-12-28T07:31:19.639Z,12.20
2022-12-28T07:33:47.487Z,9.57
2022-12-28T07:36:15.732Z,11.90
2022-12-28T07:38:43.513Z,10.68
2022-12-28T07:41:12.405Z,12.27
2022-12-28T07:43:39.792Z,15.23
2022-12-28T07:46:11.753Z,10.27
2022-12-28T07:51:10.664Z,12.38
2022-12-28T07:53:38.192Z,14.93
2022-12-28T07:56:05.963Z,12.05
2022-12-28T07:58:33.444Z,10.43
2022-12-28T08:01:06.924Z,10.75
2022-12-28T08:03:34.509Z,11.52
2022-12-28T08:06:12.356Z,12.68
2022-12-28T08:08:40.388Z,13.80
2022-12-28T08:11:10.541Z,10.05
2022-12-28T08:13:38.546Z,9.57
2022-12-28T08:16:06.372Z,9.82
2022-12-28T08:18:33.912Z,10.70
2022-12-28T08:21:02.365Z,10.50
2022-12-28T08:23:30.115Z,10.57
2022-12-28T08:25:57.858Z,10.68
2022-12-28T08:28:24.967Z,8.63
2022-12-28T08:30:52.220Z,9.93
2022-12-28T08:33:19.373Z,10.27
2022-12-28T08:35:46.626Z,8.68
2022-12-28T08:38:13.827Z,8.50
2022-12-28T08:40:41.005Z,9.02
2022-12-28T08:43:08.230Z,10.60
2022-12-28T08:45:35.386Z,8.98
2022-12-28T08:48:02.506Z,8.82
2022-12-28T08:50:31.718Z,10.80
2022-12-28T08:52:59.050Z,10.80
2022-12-28T08:55:26.310Z,10.00
2022-12-28T08:57:53.454Z,8.90
2022-12-28T09:00:20.591Z,9.73
2022-12-28T09:02:47.779Z,7.80
2022-12-28T09:05:15.004Z,8.70
2022-12-28T09:07:42.122Z,9.38
2022-12-28T09:10:09.565Z,9.50
2022-12-28T09:12:36.754Z,9.05
2022-12-28T09:15:03.900Z,7.43
2022-12-28T09:17:31.140Z,8.38
2022-12-28T09:19:58.250Z,9.52
2022-12-28T09:22:25.353Z,9.45
2022-12-28T09:24:52.514Z,7.90
2022-12-28T09:27:19.678Z,11.40
2022-12-28T09:29:46.794Z,9.98
2022-12-28T09:32:13.875Z,13.18
2022-12-28T09:34:40.959Z,9.07
2022-12-28T09:37:08.820Z,9.57
2022-12-28T09:39:36.142Z,11.70
2022-12-28T09:42:05.199Z,9.70
2022-12-28T09:44:35.320Z,11.10
2022-12-28T09:47:20.813Z,10.95
2022-12-28T09:50:06.554Z,12.43
2022-12-28T09:52:49.864Z,11.80
2022-12-28T09:55:18.183Z,14.75
2022-12-28T09:57:54.047Z,9.40
2022-12-28T10:00:22.622Z,10.48
2022-12-28T10:02:55.596Z,11.88
2022-12-28T10:05:23.381Z,10.05
2022-12-28T10:07:51.686Z,9.15
2022-12-28T10:10:19.422Z,9.07
2022-12-28T10:12:46.853Z,10.77
2022-12-28T10:15:15.078Z,10.05
2022-12-28T10:17:42.815Z,9.43
2022-12-28T10:20:17.484Z,8.73
2022-12-28T10:22:49.985Z,10.90
2022-12-28T10:25:21.585Z,8.52
2022-12-28T10:27:48.772Z,7.32
2022-12-28T10:30:29.718Z,7.45
2022-12-28T10:33:02.607Z,7.25
2022-12-28T10:35:33.537Z,8.45
2022-12-28T10:38:02.893Z,8.88
2022-12-28T10:40:31.574Z,8.68
2022-12-28T10:42:59.061Z,7.22
2022-12-28T10:45:34.264Z,6.85
2022-12-28T10:48:01.950Z,6.78
2022-12-28T10:50:38.361Z,7.53
2022-12-28T10:53:05.803Z,6.60
2022-12-28T10:55:33.991Z,7.57
2022-12-28T10:58:29.092Z,7.32
2022-12-28T11:01:08.109Z,7.30
2022-12-28T11:03:37.197Z,6.03
2022-12-28T11:06:26.251Z,6.40
2022-12-28T11:09:12.984Z,5.50
2022-12-28T11:11:40.575Z,5.07
2022-12-28T11:14:27.956Z,5.68
2022-12-28T11:16:55.103Z,5.60
2022-12-28T11:19:22.380Z,6.10
2022-12-28T11:21:49.847Z,7.07
2022-12-28T11:24:17.771Z,4.78
2022-12-28T11:26:46.949Z,4.95
2022-12-28T11:29:15.683Z,5.32
2022-12-28T11:31:45.746Z,6.68
2022-12-28T11:34:16.628Z,5.40
2022-12-28T11:36:43.896Z,5.20
2022-12-28T11:39:26.331Z,5.60
2022-12-28T11:42:27.720Z,4.35
2022-12-28T11:44:41.119Z,5.97
2022-12-28T11:47:17.343Z,4.55
2022-12-28T11:49:45.485Z,5.40
2022-12-28T11:52:15.623Z,6.72
2022-12-28T11:54:52.803Z,5.55
2022-12-28T11:57:35.136Z,4.57
2022-12-28T12:00:22.173Z,4.75
2022-12-28T12:03:01.336Z,5.10
2022-12-28T12:05:37.899Z,6.35
2022-12-28T12:08:14.322Z,6.47
2022-12-28T12:10:44.866Z,6.90
2022-12-28T12:13:42.547Z,4.85
2022-12-28T12:16:18.030Z,5.93
2022-12-28T12:18:47.584Z,4.85
2022-12-28T12:21:31.845Z,4.18
2022-12-28T12:24:05.930Z,6.32
2022-12-28T12:26:41.577Z,4.88
2022-12-28T12:29:15.951Z,4.05
2022-12-28T12:31:47.929Z,3.97
2022-12-28T12:36:53.029Z,4.80
2022-12-28T12:39:26.073Z,3.92
2022-12-28T12:41:56.229Z,4.53
2022-12-28T12:44:34.346Z,3.20
2022-12-28T12:47:20.419Z,3.42
2022-12-28T12:50:07.948Z,4.95
2022-12-28T12:52:42.845Z,2.88
2022-12-28T12:55:15.945Z,2.78
2022-12-28T12:57:53.013Z,2.72
2022-12-28T13:00:24.408Z,3.83
2022-12-28T13:03:06.769Z,3.78
2022-12-28T13:05:35.868Z,3.47
2022-12-28T13:08:04.401Z,2.42
2022-12-28T13:10:31.583Z,2.40
2022-12-28T13:12:59.795Z,2.38
2022-12-28T13:15:27.450Z,3.25
2022-12-28T13:18:34.447Z,3.35
2022-12-28T13:20:59.692Z,2.20
2022-12-28T13:23:27.623Z,3.63
2022-12-28T13:25:56.618Z,3.28
2022-12-28T13:28:27.878Z,4.00
2022-12-28T13:31:15.297Z,3.25
2022-12-28T13:33:42.387Z,4.32
2022-12-28T13:36:18.034Z,2.80
2022-12-28T13:38:45.279Z,2.88
2022-12-28T13:41:26.133Z,4.57
2022-12-28T13:43:59.141Z,3.28
2022-12-28T13:46:26.470Z,2.38
2022-12-28T13:48:54.867Z,3.88
2022-12-28T13:51:22.330Z,3.50
2022-12-28T13:53:52.039Z,5.07
2022-12-28T13:56:20.131Z,3.28
2022-12-28T13:58:53.288Z,4.57
2022-12-28T14:01:23.212Z,3.78
2022-12-28T14:03:50.496Z,3.22
2022-12-28T14:06:18.874Z,2.67
2022-12-28T14:08:46.249Z,3.25
2022-12-28T14:11:13.421Z,4.75
2022-12-28T14:13:40.807Z,4.95
2022-12-28T14:16:08.760Z,8.52
2022-12-28T14:18:36.095Z,5.07
2022-12-28T14:21:04.176Z,4.05
2022-12-28T14:23:32.689Z,6.25
2022-12-28T14:26:00.957Z,5.60
2022-12-28T14:28:41.006Z,5.95
2022-12-28T14:31:09.110Z,5.75
2022-12-28T14:33:52.680Z,6.50
2022-12-28T14:36:25.054Z,5.70
2022-12-28T14:38:53.540Z,5.00
2022-12-28T14:41:27.450Z,4.57
2022-12-28T14:43:56.245Z,3.92
2022-12-28T14:46:37.166Z,7.32
2022-12-28T14:49:23.310Z,6.18
2022-12-28T14:51:50.672Z,5.25
2022-12-28T14:54:22.563Z,5.60
2022-12-28T14:56:52.630Z,10.98
2022-12-28T14:59:25.972Z,6.57
2022-12-28T15:01:53.243Z,5.38
2022-12-28T15:04:26.683Z,7.93
2022-12-28T15:06:54.893Z,9.20
2022-12-28T15:09:22.338Z,5.65
2022-12-28T15:11:49.581Z,9.48
2022-12-28T15:14:16.654Z,5.13
2022-12-28T15:16:44.760Z,6.60
2022-12-28T15:19:11.978Z,5.82
2022-12-28T15:21:39.099Z,7.43
2022-12-28T15:24:06.425Z,5.72
2022-12-28T15:26:33.511Z,4.70
2022-12-28T15:29:04.883Z,4.78
2022-12-28T15:31:32.062Z,7.57
2022-12-28T15:33:59.324Z,7.57
2022-12-28T15:36:26.486Z,5.75
2022-12-28T15:38:56.206Z,4.40
2022-12-28T15:41:42.388Z,7.65
2022-12-28T15:44:09.529Z,7.03
2022-12-28T15:46:36.710Z,6.60
2022-12-28T15:49:04.273Z,10.35
2022-12-28T15:51:31.384Z,5.18
2022-12-28T15:53:58.504Z,7.07
2022-12-28T15:56:27.337Z,5.18
2022-12-28T15:58:55.609Z,9.20
2022-12-28T16:01:23.447Z,4.75
2022-12-28T16:03:54.562Z,7.57
2022-12-28T16:06:22.462Z,4.13
2022-12-28T16:08:49.918Z,6.38
2022-12-28T16:11:18.370Z,3.95
2022-12-28T16:13:50.517Z,4.90
2022-12-28T16:16:17.649Z,4.43
2022-12-28T16:18:44.813Z,4.57
2022-12-28T16:21:12.439Z,5.97
2022-12-28T16:23:40.613Z,5.82
2022-12-28T16:26:08.650Z,3.13
2022-12-28T16:28:36.054Z,5.15
2022-12-28T16:31:03.304Z,5.70
2022-12-28T16:33:30.482Z,7.30
2022-12-28T16:35:59.766Z,6.97
2022-12-28T16:38:28.616Z,5.70
2022-12-28T16:40:56.863Z,7.75
2022-12-28T16:43:24.507Z,8.68
2022-12-28T16:45:51.697Z,10.98
2022-12-28T16:48:18.878Z,6.45
2022-12-28T16:50:46.280Z,5.40
2022-12-28T16:53:13.374Z,4.78
2022-12-28T16:55:41.485Z,5.13
2022-12-28T16:58:09.204Z,6.88
2022-12-28T17:00:36.379Z,7.78
2022-12-28T17:03:03.674Z,4.38
2022-12-28T17:05:35.181Z,3.80
2022-12-28T17:08:02.776Z,3.90
2022-12-28T17:10:30.286Z,4.43
2022-12-28T17:12:57.902Z,6.57
2022-12-28T17:15:25.131Z,3.10
2022-12-28T17:17:52.463Z,3.08
2022-12-28T17:20:19.546Z,4.65
2022-12-28T17:22:46.866Z,4.15
2022-12-28T17:25:14.736Z,5.63
2022-12-28T17:27:41.890Z,7.55
2022-12-28T17:30:09.252Z,3.60
2022-12-28T17:32:36.371Z,8.13
2022-12-28T17:35:03.492Z,7.75
2022-12-28T17:37:30.680Z,4.32
2022-12-28T17:39:58.101Z,6.88
2022-12-28T17:42:25.399Z,9.05
2022-12-28T17:44:52.568Z,4.30
2022-12-28T17:47:19.703Z,5.38
2022-12-28T17:49:46.894Z,6.28
2022-12-28T17:52:20.141Z,4.78
2022-12-28T17:54:47.478Z,3.58
2022-12-28T17:57:14.872Z,4.30
2022-12-28T17:59:42.004Z,5.57
2022-12-28T18:02:12.736Z,4.13
2022-12-28T18:04:40.737Z,4.03
2022-12-28T18:07:08.734Z,5.50
2022-12-28T18:09:35.829Z,3.97
2022-12-28T18:12:03.043Z,5.22
2022-12-28T18:14:30.186Z,5.78
2022-12-28T18:16:57.436Z,15.18
2022-12-28T18:19:24.675Z,5.60
2022-12-28T18:21:51.765Z,5.22
2022-12-28T18:24:21.045Z,4.88
2022-12-28T18:26:49.053Z,4.72
2022-12-28T18:29:16.163Z,5.20
2022-12-28T18:31:43.288Z,9.73
2022-12-28T18:34:10.429Z,4.72
2022-12-28T18:36:37.556Z,5.20
2022-12-28T18:39:05.050Z,9.10
2022-12-28T18:41:34.240Z,5.05
2022-12-28T18:44:02.782Z,5.38
2022-12-28T18:46:30.294Z,7.40
2022-12-28T18:48:57.916Z,7.07
2022-12-28T18:51:25.197Z,4.97
2022-12-28T18:53:52.435Z,4.22
2022-12-28T18:56:20.439Z,9.95
2022-12-28T18:58:54.860Z,5.68
2022-12-28T19:02:04.574Z,4.68
2022-12-28T19:04:11.748Z,7.60
2022-12-28T19:06:39.243Z,5.10
2022-12-28T19:09:07.022Z,6.18
2022-12-28T19:11:34.495Z,5.40
2022-12-28T19:14:05.724Z,6.95
2022-12-28T19:16:33.426Z,4.45
2022-12-28T19:19:00.933Z,6.90
2022-12-28T19:21:29.631Z,7.25
2022-12-28T19:23:58.036Z,5.80
2022-12-28T19:26:25.445Z,6.63
2022-12-28T19:28:52.777Z,5.35
2022-12-28T19:31:20.016Z,6.57
2022-12-28T19:33:47.275Z,4.60
2022-12-28T19:36:14.428Z,7.07
2022-12-28T19:38:41.636Z,4.93
2022-12-28T19:41:09.953Z,4.95
2022-12-28T19:43:37.449Z,4.07
2022-12-28T19:46:09.907Z,5.72
2022-12-28T19:48:37.462Z,2.90
2022-12-28T19:51:04.941Z,5.00
2022-12-28T19:53:32.094Z,6.07
2022-12-28T19:56:09.928Z,5.28
2022-12-28T19:58:39.321Z,4.88
2022-12-28T20:01:07.763Z,6.13
2022-12-28T20:03:35.530Z,3.80
2022-12-28T20:06:09.562Z,5.15
2022-12-28T20:08:36.913Z,5.03
2022-12-28T20:11:04.365Z,5.32
2022-12-28T20:13:32.120Z,4.70
2022-12-28T20:15:59.427Z,5.13
2022-12-28T20:18:26.607Z,5.50
2022-12-28T20:21:18.463Z,5.65
2022-12-28T20:23:40.927Z,4.60
2022-12-28T20:26:08.255Z,3.90
2022-12-28T20:28:35.434Z,6.13
2022-12-28T20:31:07.219Z,4.25
2022-12-28T20:33:35.216Z,4.15
2022-12-28T20:36:04.387Z,6.68
2022-12-28T20:38:31.843Z,4.60
2022-12-28T20:41:07.107Z,3.80
2022-12-28T20:43:34.464Z,5.05
2022-12-28T20:46:01.714Z,4.85
2022-12-28T20:48:28.972Z,3.88
2022-12-28T20:50:57.249Z,5.47
2022-12-28T20:53:24.506Z,3.83
2022-12-28T20:55:52.265Z,3.38
2022-12-28T20:58:20.279Z,4.10
2022-12-28T21:00:48.262Z,4.13
2022-12-28T21:03:15.469Z,4.30
2022-12-28T21:05:42.580Z,4.15
2022-12-28T21:08:10.397Z,4.28
2022-12-28T21:10:37.571Z,4.60
2022-12-28T21:13:04.650Z,3.60
2022-12-28T21:15:31.886Z,5.53
2022-12-28T21:17:59.415Z,4.97
2022-12-28T21:20:26.672Z,6.60
2022-12-28T21:22:54.347Z,4.65
2022-12-28T21:25:21.465Z,4.45
2022-12-28T21:27:48.629Z,4.35
2022-12-28T21:30:15.747Z,5.47
2022-12-28T21:32:44.043Z,5.50
2022-12-28T21:35:11.573Z,5.32
2022-12-28T21:37:38.663Z,5.65
2022-12-28T21:40:07.768Z,5.65
2022-12-28T21:42:35.497Z,4.75
2022-12-28T21:45:03.302Z,5.63
2022-12-28T21:47:41.603Z,6.20
2022-12-28T21:50:09.429Z,5.20
2022-12-28T21:52:37.445Z,4.75
2022-12-28T21:55:24.293Z,4.80
2022-12-28T21:57:51.723Z,6.07
2022-12-28T22:00:37.432Z,5.35
2022-12-28T22:03:23.477Z,7.55
2022-12-28T22:06:02.743Z,6.72
2022-12-28T22:08:48.498Z,6.65
2022-12-28T22:11:34.472Z,4.72
2022-12-28T22:14:01.641Z,5.07
2022-12-28T22:16:28.817Z,5.50
2022-12-28T22:19:03.832Z,5.78
2022-12-28T22:21:31.506Z,6.70
2022-12-28T22:23:58.685Z,6.03
2022-12-28T22:26:25.861Z,5.25
2022-12-28T22:28:53.070Z,5.15
2022-12-28T22:31:23.372Z,5.55
2022-12-28T22:33:50.632Z,3.53
2022-12-28T22:36:19.108Z,4.80
2022-12-28T22:38:46.799Z,4.70
2022-12-28T22:41:14.303Z,4.57
2022-12-28T22:43:41.561Z,4.15
2022-12-28T22:46:10.173Z,5.43
2022-12-28T22:48:37.609Z,4.85
2022-12-28T22:51:08.675Z,4.43
2022-12-28T22:53:39.228Z,5.20
2022-12-28T22:56:08.134Z,5.20
2022-12-28T22:58:35.291Z,4.80
2022-12-28T23:01:09.639Z,6.00
2022-12-28T23:03:40.733Z,4.70
2022-12-28T23:06:08.840Z,4.97
2022-12-28T23:08:36.006Z,4.60
2022-12-28T23:11:05.503Z,6.65
2022-12-28T23:13:33.490Z,4.35
2022-12-28T23:16:05.841Z,5.38
2022-12-28T23:18:53.873Z,4.75
2022-12-28T23:21:41.314Z,3.88
2022-12-28T23:24:30.935Z,5.28
2022-12-28T23:27:17.609Z,4.72
2022-12-28T23:29:45.297Z,4.38
2022-12-28T23:32:12.676Z,3.88
2022-12-28T23:34:39.873Z,4.75
2022-12-28T23:37:07.064Z,4.45
2022-12-28T23:39:34.226Z,5.05
2022-12-28T23:42:01.387Z,5.20
2022-12-28T23:44:28.696Z,6.15
2022-12-28T23:46:59.357Z,3.67
2022-12-28T23:49:27.003Z,15.73
2022-12-28T23:51:54.171Z,4.93
2022-12-28T23:54:21.371Z,8.13
2022-12-28T23:56:51.786Z,5.53
2022-12-28T23:59:19.059Z,4.47
